QXE3066 KSAN-KSBA
Flight info
| Callsign | QXE3066 |
|---|---|
| Flight time | 0h 43m |
| Altitude | 22000 |
| Route | PADRZ2 PADRZ SXC WEEZL KWANG |
| Aircraft | E75L/M-SDE3GILORVW/S |
Departure
| Time | 2026-05-05 00:22 |
|---|---|
| Airport | San Diego International Airport (KSAN) |
Arrival
| Time | 2026-05-05 01:06 |
|---|---|
| Airport | Santa Barbara Municipal Airport (KSBA) |
| Time | Latitude | Longitude | Altitude | Speed | Heading |
|---|---|---|---|---|---|
| 2026-05-04 23:56 | 32.73393 | -117.20050 | 24 ft | 0 kts | 255° |
| 2026-05-05 00:09 | 32.73393 | -117.20048 | 24 ft | 2 kts | 255° |
| 2026-05-05 00:09 | 32.73398 | -117.20018 | 24 ft | 4 kts | 265° |
| 2026-05-05 00:10 | 32.73396 | -117.19987 | 25 ft | 4 kts | 295° |
| 2026-05-05 00:10 | 32.73382 | -117.19975 | 29 ft | 2 kts | 13° |
| 2026-05-05 00:10 | 32.73381 | -117.19975 | 28 ft | 3 kts | 13° |
| 2026-05-05 00:17 | 32.73386 | -117.19974 | 28 ft | 4 kts | 13° |
| 2026-05-05 00:17 | 32.73451 | -117.19953 | 24 ft | 13 kts | 27° |
| 2026-05-05 00:18 | 32.73469 | -117.19856 | 27 ft | 14 kts | 106° |
| 2026-05-05 00:18 | 32.73439 | -117.19738 | 25 ft | 17 kts | 105° |
| 2026-05-05 00:18 | 32.73405 | -117.19594 | 24 ft | 19 kts | 107° |
| 2026-05-05 00:18 | 32.73368 | -117.19438 | 25 ft | 21 kts | 105° |
| 2026-05-05 00:19 | 32.73323 | -117.19255 | 21 ft | 25 kts | 106° |
| 2026-05-05 00:19 | 32.73274 | -117.19056 | 27 ft | 25 kts | 106° |
| 2026-05-05 00:19 | 32.73225 | -117.18851 | 27 ft | 26 kts | 106° |
| 2026-05-05 00:19 | 32.73174 | -117.18639 | 30 ft | 28 kts | 105° |
| 2026-05-05 00:20 | 32.73118 | -117.18408 | 23 ft | 30 kts | 106° |
| 2026-05-05 00:20 | 32.73058 | -117.18162 | 20 ft | 32 kts | 105° |
| 2026-05-05 00:20 | 32.72997 | -117.17911 | 21 ft | 31 kts | 107° |
| 2026-05-05 00:20 | 32.72950 | -117.17722 | 19 ft | 16 kts | 91° |
| 2026-05-05 00:21 | 32.72990 | -117.17608 | 25 ft | 13 kts | 33° |
| 2026-05-05 00:21 | 32.73033 | -117.17639 | 21 ft | 10 kts | 287° |
| 2026-05-05 00:21 | 32.73054 | -117.17725 | 21 ft | 19 kts | 286° |
| 2026-05-05 00:21 | 32.73143 | -117.18093 | 20 ft | 72 kts | 284° |
| 2026-05-05 00:22 | 32.73323 | -117.18836 | 24 ft | 114 kts | 286° |
| 2026-05-05 00:22 | 32.73583 | -117.19855 | 151 ft | 139 kts | 286° |
| 2026-05-05 00:22 | 32.73919 | -117.20974 | 700 ft | 150 kts | 287° |
| 2026-05-05 00:22 | 32.74373 | -117.22143 | 1205 ft | 162 kts | 304° |
| 2026-05-05 00:23 | 32.75064 | -117.23295 | 1611 ft | 180 kts | 301° |
| 2026-05-05 00:23 | 32.75793 | -117.24618 | 1998 ft | 205 kts | 301° |
| 2026-05-05 00:23 | 32.76654 | -117.26130 | 2399 ft | 235 kts | 302° |
| 2026-05-05 00:23 | 32.77580 | -117.27719 | 2788 ft | 223 kts | 302° |
| 2026-05-05 00:24 | 32.78470 | -117.29265 | 3169 ft | 239 kts | 302° |
| 2026-05-05 00:24 | 32.79436 | -117.30976 | 3560 ft | 253 kts | 303° |
| 2026-05-05 00:24 | 32.80488 | -117.32664 | 4037 ft | 258 kts | 305° |
| 2026-05-05 00:24 | 32.81569 | -117.34343 | 4452 ft | 255 kts | 306° |
| 2026-05-05 00:25 | 32.82659 | -117.36026 | 4903 ft | 257 kts | 306° |
| 2026-05-05 00:25 | 32.83754 | -117.37716 | 5314 ft | 259 kts | 306° |
| 2026-05-05 00:25 | 32.84847 | -117.39414 | 5691 ft | 259 kts | 306° |
| 2026-05-05 00:25 | 32.85941 | -117.41116 | 6074 ft | 260 kts | 306° |
| 2026-05-05 00:26 | 32.87047 | -117.42833 | 6455 ft | 262 kts | 306° |
| 2026-05-05 00:26 | 32.88159 | -117.44558 | 6814 ft | 264 kts | 306° |
| 2026-05-05 00:26 | 32.89279 | -117.46297 | 7175 ft | 266 kts | 305° |
| 2026-05-05 00:26 | 32.90403 | -117.48045 | 7542 ft | 267 kts | 304° |
| 2026-05-05 00:27 | 32.91534 | -117.49807 | 7914 ft | 270 kts | 304° |
| 2026-05-05 00:27 | 32.92678 | -117.51587 | 8282 ft | 271 kts | 304° |
| 2026-05-05 00:27 | 32.93825 | -117.53375 | 8653 ft | 273 kts | 304° |
| 2026-05-05 00:27 | 32.94987 | -117.55184 | 9054 ft | 276 kts | 303° |
| 2026-05-05 00:28 | 32.96156 | -117.57007 | 9453 ft | 277 kts | 303° |
| 2026-05-05 00:28 | 32.97333 | -117.58841 | 9824 ft | 281 kts | 303° |
| 2026-05-05 00:28 | 32.98519 | -117.60693 | 9925 ft | 282 kts | 303° |
| 2026-05-05 00:28 | 32.99708 | -117.62548 | 9950 ft | 281 kts | 303° |
| 2026-05-05 00:29 | 33.00888 | -117.64393 | 9961 ft | 279 kts | 303° |
| 2026-05-05 00:29 | 33.02061 | -117.66225 | 9963 ft | 278 kts | 303° |
| 2026-05-05 00:29 | 33.03234 | -117.68056 | 9966 ft | 278 kts | 303° |
| 2026-05-05 00:29 | 33.04416 | -117.69890 | 9962 ft | 279 kts | 305° |
| 2026-05-05 00:30 | 33.05676 | -117.71653 | 9965 ft | 279 kts | 308° |
| 2026-05-05 00:30 | 33.06985 | -117.73364 | 9966 ft | 280 kts | 309° |
| 2026-05-05 00:30 | 33.08397 | -117.74978 | 9960 ft | 283 kts | 314° |
| 2026-05-05 00:30 | 33.09883 | -117.76520 | 9962 ft | 282 kts | 315° |
| 2026-05-05 00:31 | 33.11373 | -117.78038 | 9961 ft | 282 kts | 315° |
| 2026-05-05 00:31 | 33.12871 | -117.79558 | 9961 ft | 282 kts | 315° |
| 2026-05-05 00:31 | 33.14362 | -117.81076 | 9957 ft | 282 kts | 315° |
| 2026-05-05 00:31 | 33.15856 | -117.82597 | 9960 ft | 282 kts | 315° |
| 2026-05-05 00:32 | 33.17397 | -117.84055 | 9960 ft | 285 kts | 323° |
| 2026-05-05 00:32 | 33.19158 | -117.85160 | 9962 ft | 288 kts | 331° |
| 2026-05-05 00:32 | 33.21019 | -117.86058 | 9967 ft | 287 kts | 335° |
| 2026-05-05 00:32 | 33.22904 | -117.86851 | 9980 ft | 288 kts | 337° |
| 2026-05-05 00:33 | 33.24833 | -117.87517 | 10006 ft | 290 kts | 343° |
| 2026-05-05 00:33 | 33.26877 | -117.88055 | 10085 ft | 313 kts | 344° |
| 2026-05-05 00:33 | 33.29020 | -117.88593 | 10076 ft | 315 kts | 344° |
| 2026-05-05 00:33 | 33.31160 | -117.89124 | 10033 ft | 313 kts | 344° |
| 2026-05-05 00:34 | 33.33288 | -117.89655 | 9999 ft | 313 kts | 344° |
| 2026-05-05 00:34 | 33.35373 | -117.90359 | 9966 ft | 308 kts | 329° |
| 2026-05-05 00:34 | 33.36977 | -117.91958 | 9949 ft | 300 kts | 302° |
| 2026-05-05 00:34 | 33.37737 | -117.94226 | 9970 ft | 294 kts | 276° |
| 2026-05-05 00:35 | 33.37777 | -117.96662 | 9990 ft | 292 kts | 265° |
| 2026-05-05 00:35 | 33.37610 | -117.99074 | 9976 ft | 292 kts | 263° |
| 2026-05-05 00:35 | 33.37388 | -118.01486 | 9959 ft | 292 kts | 263° |
| 2026-05-05 00:35 | 33.37156 | -118.03897 | 9946 ft | 292 kts | 263° |
| 2026-05-05 00:36 | 33.36923 | -118.06298 | 9955 ft | 291 kts | 263° |
| 2026-05-05 00:36 | 33.36691 | -118.08720 | 9953 ft | 293 kts | 262° |
| 2026-05-05 00:36 | 33.36454 | -118.11143 | 9951 ft | 293 kts | 262° |
| 2026-05-05 00:36 | 33.36217 | -118.13570 | 9966 ft | 293 kts | 262° |
| 2026-05-05 00:37 | 33.35982 | -118.15994 | 9970 ft | 294 kts | 262° |
| 2026-05-05 00:37 | 33.35743 | -118.18424 | 9978 ft | 294 kts | 262° |
| 2026-05-05 00:37 | 33.35555 | -118.20853 | 10014 ft | 294 kts | 266° |
| 2026-05-05 00:37 | 33.35515 | -118.23307 | 10071 ft | 295 kts | 268° |
| 2026-05-05 00:38 | 33.35545 | -118.25758 | 10083 ft | 295 kts | 270° |
| 2026-05-05 00:38 | 33.35729 | -118.28203 | 10062 ft | 296 kts | 276° |
| 2026-05-05 00:38 | 33.36022 | -118.30638 | 10035 ft | 296 kts | 277° |
| 2026-05-05 00:38 | 33.36338 | -118.33069 | 10009 ft | 296 kts | 277° |
| 2026-05-05 00:39 | 33.36655 | -118.35496 | 9989 ft | 295 kts | 277° |
| 2026-05-05 00:39 | 33.36998 | -118.37920 | 9993 ft | 299 kts | 282° |
| 2026-05-05 00:39 | 33.37804 | -118.40215 | 9995 ft | 302 kts | 295° |
| 2026-05-05 00:39 | 33.38863 | -118.42402 | 10042 ft | 304 kts | 298° |
| 2026-05-05 00:40 | 33.40013 | -118.44533 | 10104 ft | 305 kts | 301° |
| 2026-05-05 00:40 | 33.41196 | -118.46629 | 10145 ft | 304 kts | 301° |
| 2026-05-05 00:40 | 33.42400 | -118.48721 | 10101 ft | 305 kts | 301° |
| 2026-05-05 00:40 | 33.43682 | -118.50741 | 10088 ft | 306 kts | 306° |
| 2026-05-05 00:41 | 33.45037 | -118.52702 | 10071 ft | 307 kts | 307° |
| 2026-05-05 00:41 | 33.46391 | -118.54644 | 10046 ft | 307 kts | 306° |
| 2026-05-05 00:41 | 33.47758 | -118.56594 | 10020 ft | 306 kts | 307° |
| 2026-05-05 00:41 | 33.49130 | -118.58540 | 10021 ft | 306 kts | 307° |
| 2026-05-05 00:42 | 33.50503 | -118.60500 | 10034 ft | 307 kts | 307° |
| 2026-05-05 00:42 | 33.51873 | -118.62455 | 10044 ft | 307 kts | 307° |
| 2026-05-05 00:42 | 33.53250 | -118.64424 | 10035 ft | 307 kts | 307° |
| 2026-05-05 00:42 | 33.54618 | -118.66382 | 10026 ft | 307 kts | 307° |
| 2026-05-05 00:43 | 33.55557 | -118.67718 | 10081 ft | 311 kts | 307° |
| 2026-05-05 00:43 | 33.56937 | -118.69720 | 10145 ft | 312 kts | 306° |
| 2026-05-05 00:43 | 33.58317 | -118.71675 | 10113 ft | 310 kts | 307° |
| 2026-05-05 00:43 | 33.59699 | -118.73650 | 10074 ft | 309 kts | 306° |
| 2026-05-05 00:44 | 33.61078 | -118.75628 | 10039 ft | 309 kts | 306° |
| 2026-05-05 00:44 | 33.62457 | -118.77607 | 10013 ft | 310 kts | 306° |
| 2026-05-05 00:44 | 33.63840 | -118.79592 | 9997 ft | 310 kts | 306° |
| 2026-05-05 00:44 | 33.65217 | -118.81570 | 10001 ft | 309 kts | 306° |
| 2026-05-05 00:45 | 33.66597 | -118.83552 | 10013 ft | 310 kts | 306° |
| 2026-05-05 00:45 | 33.67981 | -118.85541 | 9994 ft | 309 kts | 306° |
| 2026-05-05 00:45 | 33.69359 | -118.87524 | 9994 ft | 309 kts | 306° |
| 2026-05-05 00:45 | 33.70740 | -118.89510 | 10004 ft | 309 kts | 306° |
| 2026-05-05 00:46 | 33.72117 | -118.91493 | 10006 ft | 310 kts | 306° |
| 2026-05-05 00:46 | 33.73498 | -118.93484 | 10001 ft | 310 kts | 306° |
| 2026-05-05 00:46 | 33.74876 | -118.95469 | 9857 ft | 311 kts | 306° |
| 2026-05-05 00:46 | 33.76264 | -118.97468 | 9450 ft | 309 kts | 307° |
| 2026-05-05 00:47 | 33.77914 | -118.99090 | 9033 ft | 309 kts | 329° |
| 2026-05-05 00:47 | 33.79876 | -119.00095 | 8634 ft | 305 kts | 338° |
| 2026-05-05 00:47 | 33.81895 | -119.00835 | 8246 ft | 301 kts | 342° |
| 2026-05-05 00:47 | 33.83902 | -119.01408 | 8075 ft | 291 kts | 345° |
| 2026-05-05 00:48 | 33.85863 | -119.01895 | 8011 ft | 284 kts | 346° |
| 2026-05-05 00:48 | 33.87796 | -119.02340 | 7992 ft | 285 kts | 347° |
| 2026-05-05 00:48 | 33.89774 | -119.02653 | 7998 ft | 287 kts | 351° |
| 2026-05-05 00:48 | 33.91764 | -119.02878 | 8003 ft | 287 kts | 352° |
| 2026-05-05 00:49 | 33.93757 | -119.03088 | 7993 ft | 287 kts | 352° |
| 2026-05-05 00:49 | 33.95744 | -119.03295 | 7996 ft | 287 kts | 352° |
| 2026-05-05 00:49 | 33.97741 | -119.03504 | 7998 ft | 288 kts | 352° |
| 2026-05-05 00:49 | 33.99734 | -119.03714 | 7993 ft | 287 kts | 352° |
| 2026-05-05 00:50 | 34.01727 | -119.03923 | 8002 ft | 287 kts | 352° |
| 2026-05-05 00:50 | 34.03720 | -119.04132 | 8007 ft | 288 kts | 352° |
| 2026-05-05 00:50 | 34.05713 | -119.04341 | 7999 ft | 288 kts | 352° |
| 2026-05-05 00:50 | 34.07700 | -119.04548 | 8001 ft | 285 kts | 351° |
| 2026-05-05 00:51 | 34.09570 | -119.05185 | 7999 ft | 277 kts | 326° |
| 2026-05-05 00:51 | 34.10999 | -119.06715 | 8042 ft | 278 kts | 308° |
| 2026-05-05 00:51 | 34.12195 | -119.08511 | 8036 ft | 273 kts | 303° |
| 2026-05-05 00:51 | 34.13278 | -119.10374 | 8023 ft | 269 kts | 300° |
| 2026-05-05 00:52 | 34.14314 | -119.12255 | 8022 ft | 271 kts | 299° |
| 2026-05-05 00:52 | 34.15325 | -119.14185 | 8009 ft | 271 kts | 297° |
| 2026-05-05 00:52 | 34.16211 | -119.16168 | 8025 ft | 271 kts | 294° |
| 2026-05-05 00:52 | 34.17073 | -119.18202 | 8055 ft | 273 kts | 294° |
| 2026-05-05 00:53 | 34.17932 | -119.20254 | 7718 ft | 273 kts | 294° |
| 2026-05-05 00:53 | 34.18782 | -119.22292 | 7350 ft | 270 kts | 294° |
| 2026-05-05 00:53 | 34.19624 | -119.24307 | 6980 ft | 267 kts | 294° |
| 2026-05-05 00:53 | 34.20451 | -119.26305 | 6687 ft | 265 kts | 295° |
| 2026-05-05 00:54 | 34.21295 | -119.28285 | 6415 ft | 263 kts | 296° |
| 2026-05-05 00:54 | 34.22116 | -119.30248 | 6122 ft | 261 kts | 295° |
| 2026-05-05 00:54 | 34.22927 | -119.32233 | 5791 ft | 266 kts | 296° |
| 2026-05-05 00:54 | 34.23766 | -119.34243 | 5430 ft | 267 kts | 296° |
| 2026-05-05 00:55 | 34.24599 | -119.36230 | 5119 ft | 261 kts | 297° |
| 2026-05-05 00:55 | 34.25770 | -119.37838 | 5035 ft | 262 kts | 324° |
| 2026-05-05 00:55 | 34.27279 | -119.39136 | 5032 ft | 264 kts | 319° |
| 2026-05-05 00:55 | 34.28646 | -119.40552 | 5236 ft | 254 kts | 317° |
| 2026-05-05 00:56 | 34.29901 | -119.41909 | 5289 ft | 228 kts | 316° |
| 2026-05-05 00:56 | 34.30993 | -119.43117 | 5304 ft | 211 kts | 315° |
| 2026-05-05 00:56 | 34.32028 | -119.44255 | 5311 ft | 192 kts | 316° |
| 2026-05-05 00:56 | 34.32991 | -119.45313 | 5192 ft | 184 kts | 315° |
| 2026-05-05 00:57 | 34.33910 | -119.46333 | 5044 ft | 180 kts | 315° |
| 2026-05-05 00:57 | 34.34844 | -119.47375 | 4688 ft | 184 kts | 316° |
| 2026-05-05 00:57 | 34.35783 | -119.48417 | 4394 ft | 179 kts | 314° |
| 2026-05-05 00:57 | 34.36673 | -119.49390 | 4200 ft | 167 kts | 315° |
| 2026-05-05 00:58 | 34.37512 | -119.50292 | 4052 ft | 157 kts | 315° |
| 2026-05-05 00:58 | 34.38314 | -119.51147 | 3987 ft | 152 kts | 315° |
| 2026-05-05 00:58 | 34.39103 | -119.51986 | 3982 ft | 156 kts | 316° |
| 2026-05-05 00:58 | 34.39930 | -119.52877 | 3950 ft | 162 kts | 315° |
| 2026-05-05 00:59 | 34.40781 | -119.53771 | 3973 ft | 161 kts | 317° |
| 2026-05-05 00:59 | 34.41601 | -119.54644 | 4003 ft | 155 kts | 315° |
| 2026-05-05 00:59 | 34.42407 | -119.55493 | 3990 ft | 156 kts | 316° |
| 2026-05-05 00:59 | 34.43145 | -119.56410 | 4008 ft | 152 kts | 306° |
| 2026-05-05 01:00 | 34.43605 | -119.57544 | 4011 ft | 152 kts | 282° |
| 2026-05-05 01:00 | 34.43773 | -119.58809 | 4017 ft | 153 kts | 275° |
| 2026-05-05 01:00 | 34.43834 | -119.60106 | 3934 ft | 155 kts | 270° |
| 2026-05-05 01:00 | 34.43749 | -119.61382 | 3798 ft | 150 kts | 261° |
| 2026-05-05 01:01 | 34.43579 | -119.62628 | 3655 ft | 147 kts | 259° |
| 2026-05-05 01:01 | 34.43402 | -119.63800 | 3495 ft | 135 kts | 259° |
| 2026-05-05 01:01 | 34.43226 | -119.64869 | 3295 ft | 125 kts | 258° |
| 2026-05-05 01:01 | 34.43058 | -119.65858 | 3081 ft | 117 kts | 258° |
| 2026-05-05 01:02 | 34.42872 | -119.66964 | 3001 ft | 144 kts | 258° |
| 2026-05-05 01:02 | 34.42698 | -119.68090 | 2964 ft | 135 kts | 259° |
| 2026-05-05 01:02 | 34.42588 | -119.69192 | 2814 ft | 131 kts | 267° |
| 2026-05-05 01:02 | 34.42583 | -119.70310 | 2627 ft | 134 kts | 270° |
| 2026-05-05 01:03 | 34.42687 | -119.71426 | 2415 ft | 132 kts | 276° |
| 2026-05-05 01:03 | 34.42808 | -119.72509 | 2292 ft | 129 kts | 275° |
| 2026-05-05 01:03 | 34.42866 | -119.73607 | 2105 ft | 132 kts | 269° |
| 2026-05-05 01:03 | 34.42858 | -119.74730 | 1905 ft | 135 kts | 268° |
| 2026-05-05 01:04 | 34.42877 | -119.75853 | 1572 ft | 132 kts | 271° |
| 2026-05-05 01:04 | 34.42910 | -119.78038 | 1157 ft | 131 kts | 267° |
| 2026-05-05 01:04 | 34.42901 | -119.79147 | 877 ft | 133 kts | 267° |
| 2026-05-05 01:05 | 34.42891 | -119.80222 | 651 ft | 123 kts | 266° |
| 2026-05-05 01:05 | 34.42859 | -119.81267 | 481 ft | 126 kts | 266° |
| 2026-05-05 01:05 | 34.42830 | -119.82332 | 256 ft | 126 kts | 266° |
| 2026-05-05 01:05 | 34.42814 | -119.83373 | 71 ft | 122 kts | 264° |
| 2026-05-05 01:06 | 34.42774 | -119.84324 | 19 ft | 94 kts | 270° |
| 2026-05-05 01:06 | 34.42765 | -119.84717 | 15 ft | 27 kts | 269° |
| 2026-05-05 01:06 | 34.42760 | -119.84935 | 16 ft | 26 kts | 267° |
| 2026-05-05 01:06 | 34.42744 | -119.85154 | 17 ft | 21 kts | 239° |
| 2026-05-05 01:07 | 34.42648 | -119.85145 | 16 ft | 16 kts | 103° |
| 2026-05-05 01:07 | 34.42646 | -119.85108 | 16 ft | 0 kts | 90° |
| 2026-05-05 01:08 | 34.42646 | -119.85104 | 16 ft | 3 kts | 90° |
| 2026-05-05 01:08 | 34.42647 | -119.85037 | 17 ft | 13 kts | 89° |
| 2026-05-05 01:09 | 34.42650 | -119.84892 | 13 ft | 20 kts | 87° |
| 2026-05-05 01:09 | 34.42654 | -119.84715 | 14 ft | 22 kts | 88° |
| 2026-05-05 01:09 | 34.42657 | -119.84523 | 15 ft | 24 kts | 89° |
| 2026-05-05 01:09 | 34.42661 | -119.84318 | 17 ft | 25 kts | 89° |
| 2026-05-05 01:10 | 34.42665 | -119.84107 | 20 ft | 25 kts | 88° |
| 2026-05-05 01:10 | 34.42670 | -119.83898 | 21 ft | 20 kts | 89° |
| 2026-05-05 01:10 | 34.42666 | -119.83834 | 21 ft | 3 kts | 133° |
| 2026-05-05 01:10 | 34.42636 | -119.83825 | 20 ft | 6 kts | 167° |
| 2026-05-05 01:11 | 34.42603 | -119.83783 | 20 ft | 7 kts | 98° |
| 2026-05-05 01:11 | 34.42601 | -119.83754 | 20 ft | 1 kts | 91° |
| 2026-05-05 01:11 | 34.42601 | -119.83747 | 20 ft | 0 kts | 91° |
| 2026-05-05 01:11 | 34.42601 | -119.83746 | 20 ft | 0 kts | 91° |